KHVR

Havre City-County Airport

Havre, Montana, USA
KHVR 221140Z 2212/2312 23011KT P6SM FEW080 FEW230 FM221500 23012G20KT P6SM FEW090 FEW230 FM222100 24017G29KT P6SM FEW080 FEW200 FM230100 24012G20KT P6SM SCT050 SCT200 FM231100 24010G18KT P6SM SCT021 BKN080
Issued Valid From Valid To
Jan-22 @ 11:40 UTC
(6 hours ago)
Jan-22 @ 12:00 UTC
(6 hours ago)
Jan-23 @ 12:00 UTC
(in 18 hours)
Expired Click to View Jan-22 @ 12:00 to Jan-22 @ 15:00
KHVR 221140Z 2212/2312 23011KT P6SM FEW080 FEW230
Wind Visibility Clouds
230° at 11 knots Greater than 6 miles
  • Few at 8,000' AGL
  • Few at 23,000' AGL
From Jan-22 @ 15:00 to Jan-22 @ 21:00
FM221500 23012G20KT P6SM FEW090 FEW230
Wind Visibility Clouds
230° at 12 knots
 Gusting to 20 knots
Greater than 6 miles
  • Few at 9,000' AGL
  • Few at 23,000' AGL
From Jan-22 @ 21:00 to Jan-23 @ 01:00
FM222100 24017G29KT P6SM FEW080 FEW200
Wind Visibility Clouds
240° at 17 knots
 Gusting to 29 knots
Greater than 6 miles
  • Few at 8,000' AGL
  • Few at 20,000' AGL
From Jan-23 @ 01:00 to Jan-23 @ 11:00
FM230100 24012G20KT P6SM SCT050 SCT200
Wind Visibility Clouds
240° at 12 knots
 Gusting to 20 knots
Greater than 6 miles
  • Scattered at 5,000' AGL
  • Scattered at 20,000' AGL
From Jan-23 @ 11:00 to Jan-23 @ 12:00
FM231100 24010G18KT P6SM SCT021 BKN080
Wind Visibility Clouds
240° at 10 knots
 Gusting to 18 knots
Greater than 6 miles
  • Scattered at 2,100' AGL
  • Broken at 8,000' AGL
KHVR 221140Z 2212/2312 23011KT P6SM FEW080 FEW230 FM221500 23012G20KT P6SM FEW090 FEW230 FM222100 24017G29KT P6SM FEW080 FEW200 FM230100 24012G20KT P6SM SCT050 SCT200 FM231100 24010G18KT P6SM SCT021 BKN080
Issued Jan-22 @ 11:40 UTC
(6 hours ago)
Valid From Jan-22 @ 12:00 UTC
(6 hours ago)
Valid To Jan-23 @ 12:00 UTC
(in 18 hours)
Jan-22 @ 12:00 - Jan-22 @ 15:00
Wind Visibility
230° at 11 knots Greater than 6 miles
Clouds
  • Few at 8,000' AGL
  • Few at 23,000' AGL
From Jan-22 @ 15:00 - Jan-22 @ 21:00
Wind Visibility
230° at 12 knots
 Gusting to 20 knots
Greater than 6 miles
Clouds
  • Few at 9,000' AGL
  • Few at 23,000' AGL
From Jan-22 @ 21:00 - Jan-23 @ 01:00
Wind Visibility
240° at 17 knots
 Gusting to 29 knots
Greater than 6 miles
Clouds
  • Few at 8,000' AGL
  • Few at 20,000' AGL
From Jan-23 @ 01:00 - Jan-23 @ 11:00
Wind Visibility
240° at 12 knots
 Gusting to 20 knots
Greater than 6 miles
Clouds
  • Scattered at 5,000' AGL
  • Scattered at 20,000' AGL
From Jan-23 @ 11:00 - Jan-23 @ 12:00
Wind Visibility
240° at 10 knots
 Gusting to 18 knots
Greater than 6 miles
Clouds
  • Scattered at 2,100' AGL
  • Broken at 8,000' AGL